createdAt,value
2023-03-31T00:07:08.585Z,1551.82446
2023-03-31T00:22:10.222Z,1558.14003
2023-03-31T00:37:11.851Z,1575.54429
2023-03-31T00:52:13.561Z,1672.90936
2023-03-31T01:07:15.247Z,1742.52325
2023-03-31T01:22:16.881Z,1761.99918
2023-03-31T01:37:18.532Z,1787.85907
2023-03-31T01:52:20.246Z,1779.54897
2023-03-31T02:07:21.958Z,1820.65267
2023-03-31T02:22:23.615Z,1831.85285
2023-03-31T02:37:25.269Z,1815.71865
2023-03-31T02:52:26.937Z,1808.36757
2023-03-31T03:07:28.621Z,1871.50888
2023-03-31T03:22:30.270Z,1818.18231
2023-03-31T03:37:31.978Z,1818.18231
2023-03-31T03:52:33.630Z,1804.7143
2023-03-31T04:07:35.264Z,1829.35203
2023-03-31T04:22:36.887Z,1868.89868
2023-03-31T04:37:38.540Z,1964.80988
2023-03-31T04:52:40.218Z,2021.11664
2023-03-31T05:07:41.903Z,2111.89964
2023-03-31T05:22:44.110Z,2198.52388
2023-03-31T05:37:45.890Z,2257.79326
2023-03-31T05:52:47.528Z,2320.34683
2023-03-31T06:07:49.164Z,2275.04295
2023-03-31T06:22:50.809Z,2168.28529
2023-03-31T06:37:52.458Z,2168.28529
2023-03-31T06:52:54.094Z,2177.0923
2023-03-31T07:07:55.749Z,2189.54299
2023-03-31T07:22:57.373Z,2154.34134
2023-03-31T07:37:59.015Z,2271.18695
2023-03-31T07:53:00.689Z,2296.48723
2023-03-31T08:08:02.371Z,2288.64269
2023-03-31T08:23:04.002Z,2322.35753
2023-03-31T08:38:05.642Z,2334.49528
2023-03-31T08:53:07.316Z,2401.4342
2023-03-31T09:08:09.005Z,2483.78179
2023-03-31T09:23:10.659Z,2479.18645
2023-03-31T09:38:12.311Z,2504.67341
2023-03-31T09:53:13.972Z,2528.3024
2023-03-31T10:08:15.595Z,2584.37853
2023-03-31T10:23:17.252Z,2609.54287
2023-03-31T10:38:19.043Z,2674.65122
2023-03-31T10:53:20.674Z,2729.12476
2023-03-31T11:08:22.314Z,2729.12476
2023-03-31T11:23:23.982Z,2745.90216
2023-03-31T11:38:25.624Z,2762.88712
2023-03-31T11:53:27.226Z,2812.17261
2023-03-31T12:08:28.854Z,2866.31069
2023-03-31T12:23:30.505Z,2875.53701
2023-03-31T12:38:32.133Z,2891.04692
2023-03-31T12:53:33.804Z,2919.39051
2023-03-31T13:08:35.460Z,2938.59702
2023-03-31T13:23:37.152Z,2967.88536
2023-03-31T13:38:38.887Z,2991.07196
2023-03-31T13:53:40.534Z,2994.41389
2023-03-31T14:08:42.169Z,2997.76335
2023-03-31T14:23:43.806Z,3031.67469
2023-03-31T14:38:45.489Z,2607.00441
2023-03-31T14:53:47.141Z,2296.48723
2023-03-31T15:08:48.806Z,2233.33384
2023-03-31T15:23:50.426Z,2187.75561
2023-03-31T15:38:52.078Z,2207.57876
2023-03-31T15:53:53.784Z,2178.86229
2023-03-31T16:08:55.460Z,2145.71708
2023-03-31T16:23:57.099Z,2144.0005
2023-03-31T17:45:04.718Z,2110.23672
2023-03-31T18:00:06.411Z,2126.98463
2023-03-31T18:15:08.073Z,2116.90414
2023-03-31T18:30:09.775Z,2116.90414
2023-03-31T18:45:11.418Z,2016.5543
2023-03-31T19:00:13.062Z,2010.50313
2023-03-31T19:15:14.977Z,2002.99004
2023-03-31T19:30:16.641Z,2015.03809
2023-03-31T19:45:18.315Z,2008.996
2023-03-31T20:00:19.985Z,2030.30353
2023-03-31T20:15:21.660Z,2039.57432
2023-03-31T20:30:23.306Z,2024.16968
2023-03-31T20:45:24.939Z,2022.64201
2023-03-31T21:00:26.554Z,1957.63381
2023-03-31T21:15:28.287Z,1988.13106
2023-03-31T21:30:29.948Z,2018.07279
2023-03-31T21:45:31.874Z,2012.01251
2023-03-31T22:00:33.703Z,2047.3649
2023-03-31T22:15:35.456Z,2083.98184
2023-03-31T22:30:37.231Z,2090.48412
2023-03-31T22:45:38.891Z,2123.61382
2023-03-31T23:00:40.594Z,2145.71708
2023-03-31T23:15:42.263Z,2193.12653
2023-03-31T23:30:43.828Z,2213.04757
2023-03-31T23:45:45.491Z,2248.32265
